.
WxDataArchive / Data Records for 2007-06-04
2007-06-03 June 2007 2007-06-05

Data Records for Monday, 04 June 2007

Time	Temp	Chill	HIndex	Humid	Dewpt	 Wind 	HiWind	WindDir	Rain 	Barom 
-----	----	-----	------	-----	-----	------	------	-------	-----	----- 
00:00	64.3	64.3	64.3	93	62.2	0	2	338	0.00	29.432 
00:05	64.2	64.2	64.2	93	62.1	0	2	338	0.00	29.440 
00:10	64.0	64.0	64.0	93	61.9	0	1	338	0.00	29.438 
00:15	63.7	63.7	63.7	93	61.6	0	2	315	0.00	29.436 
00:20	63.5	63.5	63.5	93	61.4	0	2	315	0.00	29.436 
00:25	63.4	63.4	63.4	93	61.3	0	1	315	0.00	29.436 
00:30	63.2	63.2	63.2	93	61.1	0	1	315	0.00	29.436 
00:35	63.2	63.2	63.2	93	61.1	0	1	315	0.00	29.435 
00:40	63.1	63.1	63.1	93	61.0	0	1	315	0.00	29.433 
00:45	62.9	62.9	62.9	93	60.8	0	1	315	0.00	29.432 
00:50	62.7	62.7	62.7	93	60.6	0	1	315	0.00	29.429 
00:55	62.7	62.7	62.7	93	60.6	0	2	315	0.00	29.427 
01:00	62.7	62.7	62.7	93	60.6	0	1	315	0.00	29.427 
01:05	62.7	62.7	62.7	93	60.6	0	1	315	0.00	29.420 
01:10	62.6	62.6	62.6	93	60.5	0	1	315	0.00	29.418 
01:15	62.7	62.7	62.7	93	60.6	0	2	315	0.00	29.416 
01:20	62.6	62.6	62.6	93	60.5	0	1	315	0.00	29.416 
01:25	62.6	62.6	62.6	93	60.5	0	1	315	0.00	29.414 
01:30	62.6	62.6	62.6	93	60.5	0	1	315	0.00	29.413 
01:35	62.4	62.4	62.4	93	60.3	0	0	---	0.00	29.412 
01:40	62.4	62.4	62.4	93	60.3	0	1	315	0.00	29.413 
01:45	62.3	62.3	62.3	93	60.2	0	0	---	0.00	29.412 
01:50	62.3	62.3	62.3	94	60.5	0	0	---	0.00	29.409 
01:55	62.1	62.1	62.1	94	60.3	0	0	---	0.00	29.410 
02:00	62.1	62.1	62.1	94	60.3	0	0	---	0.00	29.407 
02:05	62.1	62.1	62.1	95	60.6	0	1	315	0.00	29.403 
02:10	62.3	62.3	62.3	95	60.8	0	1	315	0.00	29.403 
02:15	62.4	62.4	62.4	95	60.9	0	1	315	0.00	29.401 
02:20	62.4	62.4	62.4	95	60.9	0	1	315	0.00	29.401 
02:25	62.6	62.6	62.6	95	61.1	0	1	315	0.00	29.400 
02:30	62.6	62.6	62.6	95	61.1	0	2	315	0.00	29.400 
02:35	62.6	62.6	62.6	96	61.4	0	1	315	0.00	29.400 
02:40	62.6	62.6	62.6	96	61.4	0	2	315	0.00	29.401 
02:45	62.7	62.7	62.7	96	61.5	1	2	315	0.00	29.401 
02:50	62.6	62.6	62.6	96	61.4	0	2	292	0.00	29.401 
02:55	62.7	62.7	62.7	96	61.5	0	1	270	0.00	29.402 
03:00	62.7	62.7	62.7	96	61.5	0	2	270	0.00	29.401 
03:05	62.6	62.6	62.6	96	61.4	0	1	270	0.00	29.406 
03:10	62.6	62.6	62.6	96	61.4	0	1	270	0.00	29.405 
03:15	62.4	62.4	62.4	95	60.9	0	2	270	0.00	29.406 
03:20	62.3	62.3	62.3	95	60.8	0	1	270	0.00	29.407 
03:25	62.3	62.3	62.3	95	60.8	0	1	270	0.00	29.408 
03:30	62.1	62.1	62.1	95	60.6	0	0	---	0.00	29.407 
03:35	62.0	62.0	62.0	95	60.5	0	1	270	0.00	29.409 
03:40	61.8	61.8	61.8	95	60.3	0	0	---	0.00	29.408 
03:45	61.6	61.6	61.6	95	60.2	0	0	---	0.00	29.408 
03:50	61.6	61.6	61.6	95	60.2	0	0	---	0.00	29.408 
03:55	61.5	61.5	61.5	96	60.3	0	0	---	0.00	29.407 
04:00	61.3	61.3	61.3	95	59.9	0	1	270	0.00	29.407 
04:05	61.3	61.3	61.3	96	60.1	0	1	270	0.00	29.408 
04:10	61.3	61.3	61.3	96	60.1	0	2	270	0.00	29.409 
04:15	61.5	61.5	61.5	96	60.3	0	2	270	0.00	29.406 
04:20	61.5	61.5	61.5	96	60.3	1	2	270	0.00	29.405 
04:25	61.5	61.5	61.5	96	60.3	0	3	248	0.00	29.405 
04:30	61.5	61.5	61.5	95	60.1	0	1	248	0.00	29.407 
04:35	61.3	61.3	61.3	95	59.9	0	1	248	0.00	29.409 
04:40	61.3	61.3	61.3	95	59.9	0	2	248	0.00	29.409 
04:45	61.3	61.3	61.3	95	59.9	0	3	248	0.00	29.409 
04:50	61.3	61.3	61.3	95	59.9	0	2	248	0.00	29.414 
04:55	61.3	61.3	61.3	95	59.9	0	2	248	0.00	29.417 
05:00	61.3	61.3	61.3	95	59.9	1	2	248	0.00	29.418 
05:05	61.3	61.3	61.3	95	59.9	0	3	248	0.00	29.416 
05:10	61.3	61.3	61.3	95	59.9	0	3	225	0.01	29.414 
05:15	61.5	61.5	61.5	94	59.8	0	2	248	0.00	29.413 
05:20	61.5	61.5	61.5	94	59.8	0	2	248	0.00	29.413 
05:25	61.5	61.5	61.5	94	59.8	0	1	248	0.00	29.414 
05:30	61.5	61.5	61.5	94	59.8	0	1	248	0.00	29.415 
05:35	61.5	61.5	61.5	94	59.8	0	1	248	0.00	29.413 
05:40	61.5	61.5	61.5	94	59.8	0	2	248	0.00	29.415 
05:45	61.6	61.6	61.6	93	59.6	0	2	248	0.00	29.415 
05:50	61.8	61.8	61.8	93	59.8	0	1	248	0.00	29.416 
05:55	62.1	62.1	62.1	93	60.0	0	1	225	0.00	29.415 
06:00	62.3	62.3	62.3	92	59.9	0	1	248	0.00	29.413 
06:05	62.4	62.4	62.4	92	60.0	0	1	248	0.00	29.415 
06:10	62.6	62.6	62.6	92	60.2	0	1	248	0.00	29.415 
06:15	62.6	62.6	62.6	91	59.9	0	1	248	0.00	29.415 
06:20	62.7	62.7	62.7	90	59.7	0	1	248	0.00	29.413 
06:25	62.9	62.9	62.9	90	59.9	0	1	248	0.00	29.412 
06:30	62.9	62.9	62.9	89	59.6	0	2	248	0.00	29.412 
06:35	63.1	63.1	63.1	89	59.8	0	2	248	0.00	29.414 
06:40	63.4	63.4	63.4	88	59.8	1	3	248	0.00	29.416 
06:45	63.7	63.7	63.7	88	60.1	1	2	248	0.00	29.415 
06:50	64.0	64.0	64.0	86	59.7	1	4	248	0.00	29.415 
06:55	64.2	64.2	64.2	85	59.6	1	3	248	0.00	29.414 
07:00	64.3	64.3	64.3	85	59.7	1	3	248	0.00	29.413 
07:05	64.5	64.5	64.5	84	59.6	1	3	270	0.00	29.411 
07:10	64.7	64.7	64.7	84	59.7	1	2	270	0.00	29.412 
07:15	64.7	64.7	64.7	83	59.4	0	2	270	0.00	29.413 
07:20	64.7	64.7	64.7	83	59.4	1	3	248	0.00	29.412 
07:25	64.8	64.8	64.8	83	59.5	1	3	270	0.00	29.409 
07:30	65.2	65.2	65.2	82	59.6	1	2	248	0.00	29.409 
07:35	65.3	65.3	65.3	81	59.3	1	3	248	0.00	29.412 
07:40	65.3	65.3	65.3	81	59.3	1	4	248	0.00	29.413 
07:45	65.5	65.5	65.5	82	59.9	1	4	248	0.00	29.414 
07:50	66.1	66.1	66.1	81	60.1	1	4	270	0.00	29.412 
07:55	66.6	66.6	66.6	80	60.2	1	3	270	0.00	29.410 
08:00	67.1	67.1	67.1	77	59.6	1	3	270	0.00	29.412 
08:05	67.3	67.3	67.3	77	59.8	2	4	270	0.00	29.415 
08:10	67.6	67.6	67.6	76	59.8	1	3	248	0.00	29.414 
08:15	67.9	67.9	67.9	75	59.7	2	4	225	0.00	29.413 
08:20	68.4	68.4	68.4	75	60.2	1	3	248	0.00	29.413 
08:25	68.6	68.6	68.6	73	59.6	2	4	248	0.00	29.412 
08:30	68.6	68.6	68.6	74	60.0	1	3	270	0.00	29.410 
08:35	69.1	69.1	69.1	73	60.1	2	4	270	0.00	29.410 
08:40	69.4	69.4	69.4	72	60.0	1	3	248	0.00	29.410 
08:45	69.3	69.3	69.3	72	59.9	1	4	248	0.00	29.411 
08:50	69.6	69.6	69.6	72	60.2	1	3	248	0.00	29.410 
08:55	69.9	69.9	69.9	70	59.7	2	4	248	0.00	29.411 
09:00	69.9	69.9	69.9	70	59.7	2	4	248	0.00	29.410 
09:05	70.1	70.1	70.1	70	59.8	1	4	248	0.00	29.411 
09:10	70.3	70.3	70.3	70	60.0	0	2	270	0.00	29.408 
09:15	70.1	70.1	70.1	70	59.8	1	4	248	0.00	29.409 
09:20	70.1	70.1	70.1	69	59.4	2	3	248	0.00	29.409 
09:25	69.9	69.9	69.9	71	60.1	1	4	270	0.00	29.410 
09:30	69.9	69.9	69.9	71	60.1	1	5	248	0.00	29.408 
09:35	69.8	69.8	69.8	69	59.2	2	5	248	0.00	29.404 
09:40	69.8	69.8	69.8	70	59.6	1	3	270	0.00	29.402 
09:45	69.6	69.6	69.6	71	59.8	2	4	248	0.00	29.404 
09:50	70.1	70.1	70.1	71	60.2	1	3	248	0.00	29.403 
09:55	70.6	70.6	70.6	70	60.3	2	4	270	0.00	29.403 
10:00	70.8	70.8	70.8	67	59.3	2	4	270	0.00	29.403 
10:05	71.1	71.1	71.1	68	60.0	2	6	270	0.00	29.401 
10:10	70.9	70.9	70.9	65	58.5	2	5	270	0.00	29.405 
10:15	70.1	70.1	70.1	68	59.0	2	4	248	0.00	29.403 
10:20	69.9	69.9	69.9	70	59.7	2	4	270	0.00	29.402 
10:25	71.1	71.1	71.1	68	60.0	2	6	248	0.00	29.399 
10:30	71.5	71.5	71.5	67	60.0	1	3	248	0.00	29.399 
10:35	71.1	71.1	71.1	65	58.7	2	6	248	0.00	29.400 
10:40	70.3	70.3	70.3	65	58.0	3	6	270	0.00	29.402 
10:45	69.9	69.9	69.9	67	58.4	2	4	248	0.00	29.401 
10:50	69.8	69.8	69.8	69	59.2	1	5	248	0.00	29.401 
10:55	69.4	69.4	69.4	68	58.4	2	5	248	0.00	29.400 
11:00	70.4	70.4	70.4	69	59.7	2	6	248	0.00	29.399 
11:05	71.3	71.3	71.3	65	58.9	2	4	270	0.00	29.397 
11:10	71.8	71.8	71.8	64	59.0	2	5	248	0.00	29.394 
11:15	71.5	71.5	71.5	65	59.1	2	5	248	0.00	29.395 
11:20	70.8	70.8	70.8	67	59.3	3	6	270	0.00	29.396 
11:25	69.9	69.9	69.9	70	59.7	3	6	270	0.00	29.398 
11:30	69.4	69.4	69.4	70	59.2	2	4	248	0.00	29.398 
11:35	69.3	69.3	69.3	69	58.7	2	4	248	0.00	29.398 
11:40	69.6	69.6	69.6	69	59.0	1	4	248	0.00	29.397 
11:45	70.9	70.9	70.9	71	61.0	2	5	248	0.00	29.396 
11:50	72.1	72.1	72.1	67	60.5	2	5	270	0.00	29.389 
11:55	72.8	72.8	72.8	62	59.0	3	10	248	0.00	29.391 
12:00	73.5	73.5	73.5	62	59.7	3	8	270	0.00	29.385 
12:05	72.8	72.8	72.8	63	59.5	3	7	270	0.00	29.387 
12:10	71.3	71.3	71.3	65	58.9	3	7	270	0.00	29.392 
12:15	69.6	69.6	69.6	69	59.0	4	8	270	0.01	29.399 
12:20	66.8	66.8	66.8	75	58.6	3	5	270	0.00	29.402 
12:25	65.5	65.5	65.5	77	58.1	2	5	248	0.01	29.402 
12:30	65.0	65.0	65.0	78	58.0	1	3	270	0.00	29.397 
12:35	65.2	65.2	65.2	78	58.2	1	3	248	0.00	29.394 
12:40	65.6	65.6	65.6	79	58.9	1	3	248	0.00	29.393 
12:45	66.4	66.4	66.4	78	59.3	2	4	248	0.00	29.391 
12:50	67.4	67.4	67.4	80	61.0	1	5	270	0.00	29.388 
12:55	68.6	68.6	68.6	79	61.8	1	4	248	0.00	29.387 
13:00	69.6	69.6	69.6	76	61.7	1	7	248	0.00	29.385 
13:05	70.1	70.1	70.1	71	60.2	2	9	45	0.00	29.384 
13:10	69.9	69.9	69.9	71	60.1	2	4	248	0.00	29.385 
13:15	69.9	69.9	69.9	69	59.3	2	5	248	0.00	29.385 
13:20	69.8	69.8	69.8	66	57.9	3	6	248	0.00	29.384 
13:25	69.9	69.9	69.9	62	56.3	3	7	248	0.00	29.383 
13:30	70.3	70.3	70.3	62	56.7	4	7	270	0.00	29.381 
13:35	71.8	71.8	71.8	61	57.6	4	6	270	0.00	29.378 
13:40	72.8	72.8	72.8	61	58.6	4	10	248	0.00	29.375 
13:45	73.9	73.9	73.9	57	57.7	3	6	270	0.00	29.374 
13:50	73.2	73.2	73.2	57	57.0	4	9	270	0.00	29.376 
13:55	72.8	72.8	72.8	60	58.1	3	10	270	0.00	29.375 
14:00	72.3	72.3	72.3	62	58.5	3	7	270	0.00	29.371 
14:05	71.8	71.8	71.8	64	59.0	3	6	270	0.00	29.372 
14:10	72.8	72.8	72.8	65	60.3	3	5	270	0.00	29.369 
14:15	73.9	73.9	73.9	63	60.5	2	5	270	0.00	29.368 
14:20	74.2	74.2	74.2	55	57.0	4	7	270	0.00	29.369 
14:25	74.2	74.2	74.2	56	57.5	3	5	270	0.00	29.367 
14:30	73.9	73.9	73.9	59	58.7	3	5	270	0.00	29.366 
14:35	73.7	73.7	73.7	57	57.5	3	8	270	0.00	29.367 
14:40	72.5	72.5	72.5	61	58.3	4	9	270	0.00	29.368 
14:45	71.8	71.8	71.8	60	57.2	3	5	270	0.00	29.369 
14:50	72.1	72.1	72.1	61	57.9	2	5	248	0.00	29.371 
14:55	72.3	72.3	72.3	58	56.7	3	5	270	0.00	29.370 
15:00	72.0	72.0	72.0	56	55.4	3	6	270	0.00	29.374 
15:05	71.8	71.8	71.8	59	56.7	3	6	270	0.00	29.376 
15:10	72.7	72.7	72.7	59	57.5	3	5	270	0.00	29.373 
15:15	72.1	72.1	72.1	58	56.5	3	5	270	0.00	29.372 
15:20	72.3	72.3	72.3	59	57.2	3	7	315	0.00	29.370 
15:25	72.8	72.8	72.8	60	58.1	2	5	270	0.00	29.368 
15:30	72.8	72.8	72.8	59	57.6	2	6	315	0.00	29.367 
15:35	71.6	71.6	71.6	61	57.4	2	6	292	0.00	29.369 
15:40	69.3	69.3	69.3	64	56.6	5	11	292	0.00	29.381 
15:45	67.6	67.6	67.6	70	57.5	3	9	292	0.00	29.387 
15:50	66.8	66.8	66.8	75	58.6	2	4	315	0.00	29.388 
15:55	65.3	65.3	65.3	80	59.0	1	3	315	0.01	29.390 
16:00	64.7	64.7	64.7	81	58.7	1	4	248	0.00	29.391 
16:05	64.5	64.5	64.5	83	59.2	2	5	338	0.00	29.393 
16:10	64.8	64.8	64.8	82	59.2	3	6	270	0.00	29.393 
16:15	65.0	65.0	65.0	81	59.0	3	6	270	0.00	29.392 
16:20	65.0	65.0	65.0	81	59.0	2	4	292	0.00	29.391 
16:25	65.0	65.0	65.0	83	59.7	2	6	270	0.00	29.392 
16:30	64.7	64.7	64.7	84	59.7	1	5	270	0.00	29.391 
16:35	64.3	64.3	64.3	85	59.7	1	3	248	0.01	29.391 
16:40	64.2	64.2	64.2	86	59.9	0	2	248	0.00	29.392 
16:45	64.5	64.5	64.5	87	60.5	1	2	248	0.00	29.390 
16:50	64.8	64.8	64.8	86	60.5	1	3	270	0.00	29.390 
16:55	65.0	65.0	65.0	85	60.4	1	3	248	0.00	29.390 
17:00	65.0	65.0	65.0	86	60.7	1	2	292	0.00	29.389 
17:05	65.0	65.0	65.0	87	61.0	0	2	292	0.00	29.388 
17:10	65.2	65.2	65.2	87	61.2	0	2	292	0.00	29.388 
17:15	65.3	65.3	65.3	87	61.3	0	3	292	0.00	29.388 
17:20	65.3	65.3	65.3	83	60.0	1	2	270	0.00	29.389 
17:25	65.6	65.6	65.6	82	59.9	1	3	315	0.00	29.388 
17:30	66.0	66.0	66.0	80	59.6	2	4	270	0.00	29.389 
17:35	66.3	66.3	66.3	79	59.6	2	3	292	0.00	29.389 
17:40	66.4	66.4	66.4	78	59.3	1	3	270	0.00	29.390 
17:45	66.3	66.3	66.3	78	59.2	2	3	292	0.00	29.393 
17:50	66.1	66.1	66.1	78	59.0	2	5	270	0.00	29.394 
17:55	66.0	66.0	66.0	79	59.3	1	4	338	0.00	29.393 
18:00	65.8	65.8	65.8	78	58.7	1	3	315	0.00	29.393 
18:05	65.8	65.8	65.8	79	59.1	1	4	315	0.00	29.392 
18:10	65.8	65.8	65.8	81	59.8	1	2	292	0.00	29.393 
18:15	65.8	65.8	65.8	83	60.5	2	3	248	0.00	29.396 
18:20	65.6	65.6	65.6	83	60.3	2	4	270	0.00	29.398 
18:25	65.5	65.5	65.5	84	60.5	1	4	270	0.00	29.399 
18:30	65.3	65.3	65.3	84	60.3	2	4	270	0.00	29.401 
18:35	65.2	65.2	65.2	86	60.9	2	4	292	0.00	29.403 
18:40	64.7	64.7	64.7	87	60.7	1	4	292	0.00	29.403 
18:45	64.5	64.5	64.5	88	60.9	1	3	292	0.01	29.404 
18:50	64.3	64.3	64.3	88	60.7	1	3	270	0.01	29.406 
18:55	64.0	64.0	64.0	89	60.7	0	2	292	0.02	29.404 
19:00	63.7	63.7	63.7	91	61.0	0	1	315	0.00	29.407 
19:05	63.5	63.5	63.5	90	60.5	2	7	270	0.00	29.407 
19:10	63.5	63.5	63.5	89	60.2	1	5	270	0.00	29.413 
19:15	63.4	63.4	63.4	89	60.1	1	3	292	0.00	29.415 
19:20	63.1	63.1	63.1	88	59.5	2	6	315	0.00	29.416 
19:25	62.9	62.9	62.9	87	59.0	2	5	315	0.00	29.419 
19:30	62.9	62.9	62.9	87	59.0	2	4	315	0.00	29.421 
19:35	62.7	62.7	62.7	87	58.8	1	4	315	0.00	29.423 
19:40	62.6	62.6	62.6	87	58.7	1	4	270	0.00	29.428 
19:45	62.4	62.4	62.4	86	58.2	2	4	315	0.00	29.433 
19:50	62.3	62.3	62.3	86	58.1	1	7	315	0.00	29.434 
19:55	62.1	62.1	62.1	83	56.9	3	6	315	0.00	29.435 
20:00	62.0	62.0	62.0	84	57.1	2	6	270	0.00	29.437 
20:05	61.6	61.6	61.6	84	56.7	2	5	315	0.00	29.434 
20:10	61.5	61.5	61.5	82	55.9	3	11	315	0.00	29.434 
20:15	61.5	61.5	61.5	81	55.6	4	7	270	0.00	29.436 
20:20	61.3	61.3	61.3	80	55.1	3	9	315	0.00	29.440 
20:25	61.2	61.2	61.2	80	55.0	2	5	270	0.00	29.438 
20:30	61.0	61.0	61.0	81	55.1	2	4	338	0.00	29.437 
20:35	61.0	61.0	61.0	81	55.1	1	5	292	0.00	29.438 
20:40	61.0	61.0	61.0	81	55.1	2	5	270	0.00	29.437 
20:45	60.9	60.9	60.9	80	54.7	3	8	292	0.00	29.437 
20:50	60.7	60.7	60.7	80	54.5	2	6	270	0.00	29.439 
20:55	60.5	60.5	60.5	81	54.6	2	6	270	0.00	29.439 
21:00	60.5	60.5	60.5	81	54.6	2	4	270	0.00	29.438 
21:05	60.4	60.4	60.4	80	54.2	2	5	270	0.00	29.442 
21:10	60.4	60.4	60.4	81	54.5	2	6	292	0.00	29.442 
21:15	60.4	60.4	60.4	81	54.5	2	6	270	0.00	29.443 
21:20	60.4	60.4	60.4	81	54.5	3	6	270	0.00	29.449 
21:25	60.4	60.4	60.4	81	54.5	2	9	248	0.00	29.451 
21:30	60.2	60.2	60.2	80	54.0	3	10	270	0.00	29.451 
21:35	60.1	60.1	60.1	81	54.2	2	5	292	0.00	29.453 
21:40	60.1	60.1	60.1	81	54.2	2	5	315	0.00	29.453 
21:45	60.1	60.1	60.1	81	54.2	3	7	270	0.00	29.455 
21:50	59.9	59.9	59.9	81	54.1	3	8	315	0.00	29.457 
21:55	59.9	59.9	59.9	81	54.1	2	6	315	0.00	29.452 
22:00	59.8	59.8	59.8	81	54.0	3	6	270	0.00	29.452 
22:05	59.6	59.6	59.6	82	54.1	2	5	315	0.00	29.454 
22:10	59.6	59.6	59.6	81	53.8	3	7	270	0.00	29.453 
22:15	59.5	59.5	59.5	81	53.7	3	6	315	0.00	29.453 
22:20	59.5	59.5	59.5	82	54.0	2	6	315	0.00	29.455 
22:25	59.5	59.5	59.5	81	53.7	4	10	315	0.00	29.457 
22:30	59.3	59.3	59.3	82	53.8	3	7	292	0.00	29.459 
22:35	59.3	59.3	59.3	82	53.8	3	7	270	0.00	29.459 
22:40	59.2	59.2	59.2	82	53.7	3	9	270	0.00	29.460 
22:45	59.2	59.2	59.2	82	53.7	3	7	292	0.00	29.458 
22:50	59.2	59.2	59.2	82	53.7	3	6	270	0.00	29.455 
22:55	59.2	59.2	59.2	82	53.7	3	5	270	0.00	29.460 
23:00	59.2	59.2	59.2	81	53.4	3	7	315	0.00	29.464 
23:05	59.2	59.2	59.2	82	53.7	3	6	270	0.00	29.462 
23:10	59.2	59.2	59.2	82	53.7	3	9	270	0.00	29.464 
23:15	59.0	59.0	59.0	82	53.5	3	7	270	0.00	29.464 
23:20	58.9	58.9	58.9	81	53.1	3	13	315	0.00	29.465 
23:25	58.6	58.6	58.6	81	52.8	3	13	292	0.00	29.464 
23:30	58.3	58.3	58.3	82	52.8	3	11	270	0.00	29.463 
23:35	58.0	58.0	58.0	82	52.5	3	7	270	0.00	29.466 
23:40	57.8	57.8	57.8	82	52.3	3	6	315	0.00	29.471 
23:45	57.6	57.6	57.6	83	52.5	4	9	270	0.00	29.475 
23:50	57.5	57.5	57.5	83	52.4	4	8	270	0.00	29.477 
23:55	57.2	57.2	57.2	82	51.8	3	6	270	0.00	29.474 

CoCoRaHS
IN-AL-39
A2 Web Hosting
Creative Commons License
GoDaddy
Look for:

loaded 2017-10-17 22:14:00 • last modified 2010-11-18 10:43:29
Privacy PolicyDisclaimer
• wx.awcolley.com is powered by PmWiki v.2002016 •
• all content (unless otherwise noted) © 2017 A W Colley